createdAt,value
2018-12-02T00:00:20.685Z,0
2018-12-02T00:01:30.889Z,0
2018-12-02T00:02:41.096Z,0
2018-12-02T00:03:50.929Z,0
2018-12-02T00:05:01.131Z,0
2018-12-02T00:06:11.722Z,0
2018-12-02T00:07:21.641Z,0
2018-12-02T00:08:31.851Z,0
2018-12-02T00:09:42.315Z,0
2018-12-02T00:10:52.724Z,0
2018-12-02T00:12:02.837Z,0
2018-12-02T00:13:12.727Z,0
2018-12-02T00:14:22.860Z,0
2018-12-02T00:15:32.721Z,0
2018-12-02T00:16:43.118Z,0
2018-12-02T00:17:53.251Z,0
2018-12-02T00:19:03.412Z,0
2018-12-02T00:20:13.543Z,0
2018-12-02T00:21:23.655Z,0
2018-12-02T00:22:33.863Z,0
2018-12-02T00:23:43.984Z,0
2018-12-02T00:24:54.099Z,0
2018-12-02T00:26:04.215Z,0
2018-12-02T00:27:14.324Z,0
2018-12-02T00:28:24.242Z,0
2018-12-02T00:29:34.378Z,0
2018-12-02T00:30:44.526Z,0
2018-12-02T00:31:54.698Z,0
2018-12-02T00:33:04.841Z,0
2018-12-02T00:34:15.047Z,0
2018-12-02T00:35:25.187Z,0
2018-12-02T00:36:35.339Z,0
2018-12-02T00:37:45.481Z,0
2018-12-02T00:38:55.630Z,0
2018-12-02T00:40:08.169Z,0
2018-12-02T00:41:18.279Z,0
2018-12-02T00:42:27.913Z,0
2018-12-02T00:43:38.039Z,0
2018-12-02T00:44:48.168Z,0
2018-12-02T00:45:58.301Z,0
2018-12-02T00:47:09.167Z,0
2018-12-02T00:48:19.004Z,0
2018-12-02T00:49:28.932Z,0
2018-12-02T00:50:38.805Z,0
2018-12-02T00:51:49.000Z,0
2018-12-02T00:52:59.173Z,0
2018-12-02T00:54:09.061Z,0
2018-12-02T00:55:18.880Z,0
2018-12-02T00:56:29.034Z,0
2018-12-02T00:57:39.412Z,0
2018-12-02T00:58:49.493Z,0
2018-12-02T00:59:59.625Z,0
2018-12-02T01:01:09.754Z,0
2018-12-02T01:02:19.909Z,0
2018-12-02T01:03:30.038Z,0
2018-12-02T01:04:40.162Z,0
2018-12-02T01:05:50.293Z,0
2018-12-02T01:07:03.093Z,0
2018-12-02T01:08:13.222Z,0
2018-12-02T01:09:23.125Z,0
2018-12-02T01:10:33.710Z,0
2018-12-02T01:11:43.861Z,0
2018-12-02T01:12:54.019Z,0
2018-12-02T01:14:04.139Z,0
2018-12-02T01:15:14.270Z,0
2018-12-02T01:16:24.419Z,0
2018-12-02T01:17:34.556Z,0
2018-12-02T01:18:44.678Z,0
2018-12-02T01:19:54.534Z,0
2018-12-02T01:21:04.666Z,0
2018-12-02T01:22:14.806Z,0
2018-12-02T01:23:24.935Z,0
2018-12-02T01:24:35.052Z,0
2018-12-02T01:25:45.194Z,0
2018-12-02T01:26:56.224Z,0
2018-12-02T01:28:06.349Z,0
2018-12-02T01:29:16.489Z,0
2018-12-02T01:30:26.598Z,0
2018-12-02T01:31:36.709Z,0
2018-12-02T01:32:46.882Z,0
2018-12-02T01:33:57.038Z,0
2018-12-02T01:35:07.162Z,0
2018-12-02T01:36:17.526Z,0
2018-12-02T01:37:27.678Z,0
2018-12-02T01:38:37.869Z,0
2018-12-02T01:39:47.717Z,0
2018-12-02T01:40:57.843Z,0
2018-12-02T01:42:09.388Z,0
2018-12-02T01:43:19.524Z,0
2018-12-02T01:44:29.172Z,0
2018-12-02T01:45:39.300Z,0
2018-12-02T01:46:49.423Z,0
2018-12-02T01:47:59.291Z,0
2018-12-02T01:49:09.459Z,0
2018-12-02T01:50:19.577Z,0
2018-12-02T01:51:29.934Z,0
2018-12-02T01:52:40.313Z,0
2018-12-02T01:53:50.197Z,0
2018-12-02T01:55:01.120Z,0
2018-12-02T01:56:11.277Z,0
2018-12-02T01:57:21.355Z,0
2018-12-02T01:58:31.480Z,0
2018-12-02T01:59:41.666Z,0
2018-12-02T02:00:51.267Z,0
2018-12-02T02:02:01.171Z,0
2018-12-02T02:03:11.311Z,0
2018-12-02T02:04:21.143Z,0
2018-12-02T02:05:31.282Z,0
2018-12-02T02:06:41.420Z,0
2018-12-02T02:07:52.127Z,0
2018-12-02T02:09:02.974Z,0
2018-12-02T02:10:14.077Z,0
2018-12-02T02:11:23.952Z,0
2018-12-02T02:12:33.888Z,0
2018-12-02T02:13:44.079Z,0
2018-12-02T02:14:54.210Z,0
2018-12-02T02:16:04.333Z,0
2018-12-02T02:17:14.703Z,0
2018-12-02T02:18:24.850Z,0
2018-12-02T02:19:35.026Z,0
2018-12-02T02:20:44.891Z,0
2018-12-02T02:21:54.987Z,0
2018-12-02T02:23:05.181Z,0
2018-12-02T02:24:15.283Z,0
2018-12-02T02:25:25.422Z,0
2018-12-02T02:26:35.532Z,0
2018-12-02T02:27:45.644Z,0
2018-12-02T02:28:55.494Z,0
2018-12-02T02:30:05.667Z,0
2018-12-02T02:31:15.788Z,0
2018-12-02T02:32:25.667Z,0
2018-12-02T02:33:36.041Z,0
2018-12-02T02:34:46.166Z,0
2018-12-02T02:35:56.535Z,0
2018-12-02T02:37:06.432Z,0
2018-12-02T02:38:16.582Z,0
2018-12-02T02:39:26.191Z,0
2018-12-02T02:40:36.373Z,0
2018-12-02T02:41:46.514Z,0
2018-12-02T02:42:56.735Z,0
2018-12-02T02:44:20.097Z,0
2018-12-02T02:45:30.045Z,0
2018-12-02T02:46:39.640Z,0
2018-12-02T02:47:49.859Z,0
2018-12-02T02:49:00.030Z,0
2018-12-02T02:50:12.855Z,0
2018-12-02T02:51:22.985Z,0
2018-12-02T02:52:33.172Z,0
2018-12-02T02:53:43.386Z,0
2018-12-02T02:54:53.550Z,0
2018-12-02T02:56:05.118Z,0
2018-12-02T02:57:15.232Z,0
2018-12-02T02:58:25.348Z,0
2018-12-02T02:59:35.482Z,0
2018-12-02T03:00:45.331Z,0
2018-12-02T03:01:55.651Z,0
2018-12-02T03:03:06.014Z,0
2018-12-02T03:35:04.332Z,0
2018-12-02T03:36:14.209Z,0
2018-12-02T03:37:24.060Z,0
2018-12-02T03:38:33.968Z,0
2018-12-02T03:39:44.090Z,0
2018-12-02T03:40:54.220Z,0
2018-12-02T03:42:04.379Z,0
2018-12-02T03:43:14.524Z,0
2018-12-02T03:44:24.651Z,0
2018-12-02T03:45:34.818Z,0
2018-12-02T03:46:44.363Z,0
2018-12-02T03:47:54.244Z,0
2018-12-02T03:49:05.740Z,0
2018-12-02T03:50:22.197Z,0
2018-12-02T03:51:32.328Z,0
2018-12-02T03:52:42.514Z,0
2018-12-02T03:53:52.643Z,0
2018-12-02T03:55:02.812Z,0
2018-12-02T03:56:12.917Z,0
2018-12-02T03:57:22.754Z,0
2018-12-02T03:58:32.622Z,0
2018-12-02T03:59:42.991Z,0
2018-12-02T04:00:53.126Z,0
2018-12-02T04:02:03.014Z,0
2018-12-02T04:03:13.150Z,0
2018-12-02T04:04:23.289Z,0
2018-12-02T04:05:33.418Z,0
2018-12-02T04:06:43.546Z,0
2018-12-02T04:07:53.663Z,0
2018-12-02T04:09:03.778Z,0
2018-12-02T04:10:13.635Z,0
2018-12-02T04:11:23.765Z,0
2018-12-02T04:12:33.909Z,0
2018-12-02T04:13:43.788Z,0
2018-12-02T04:14:54.158Z,0
2018-12-02T04:16:04.514Z,0
2018-12-02T04:17:14.643Z,0
2018-12-02T04:18:24.783Z,0
2018-12-02T04:19:34.933Z,0
2018-12-02T04:20:45.062Z,0
2018-12-02T04:21:55.205Z,0
2018-12-02T04:23:05.343Z,0
2018-12-02T04:24:15.465Z,0
2018-12-02T04:25:25.604Z,0
2018-12-02T04:26:35.777Z,0
2018-12-02T04:27:45.642Z,0
2018-12-02T04:28:55.766Z,0
2018-12-02T04:30:06.534Z,0
2018-12-02T04:31:16.695Z,0
2018-12-02T04:32:26.819Z,0
2018-12-02T04:33:36.940Z,0
2018-12-02T04:34:47.076Z,0
2018-12-02T04:35:57.217Z,0
2018-12-02T04:37:07.477Z,0
2018-12-02T04:38:17.611Z,0
2018-12-02T04:39:27.723Z,0
2018-12-02T04:40:37.853Z,0
2018-12-02T04:41:48.081Z,0
2018-12-02T04:42:58.424Z,0
2018-12-02T04:44:08.559Z,0
2018-12-02T04:45:18.736Z,0
2018-12-02T04:46:28.885Z,0
2018-12-02T04:47:39.012Z,0
2018-12-02T04:48:49.138Z,0
2018-12-02T04:49:59.016Z,0
2018-12-02T04:51:08.918Z,0
2018-12-02T04:52:19.342Z,0
2018-12-02T04:53:29.477Z,0
2018-12-02T04:54:39.835Z,0
2018-12-02T04:55:49.969Z,0
2018-12-02T04:57:00.080Z,0
2018-12-02T04:58:11.756Z,0
2018-12-02T04:59:21.862Z,0
2018-12-02T05:00:32.015Z,0
2018-12-02T05:01:42.148Z,0
2018-12-02T05:02:52.109Z,0
2018-12-02T05:04:02.239Z,0
2018-12-02T05:05:12.367Z,0
2018-12-02T05:06:23.025Z,0
2018-12-02T05:07:33.156Z,0
2018-12-02T05:08:43.398Z,0
2018-12-02T05:09:53.524Z,0
2018-12-02T05:11:03.698Z,0
2018-12-02T05:12:13.839Z,0
2018-12-02T05:13:23.682Z,0
2018-12-02T05:14:33.798Z,0
2018-12-02T05:15:43.638Z,0
2018-12-02T05:16:53.785Z,0
2018-12-02T05:18:04.178Z,0
2018-12-02T05:19:14.312Z,0
2018-12-02T05:20:24.750Z,0
2018-12-02T05:21:34.597Z,0
2018-12-02T05:22:44.791Z,0
2018-12-02T05:23:54.904Z,0
2018-12-02T05:25:05.222Z,0
2018-12-02T05:26:15.415Z,0
2018-12-02T05:27:25.267Z,0
2018-12-02T05:28:34.863Z,0
2018-12-02T05:29:44.998Z,0
2018-12-02T05:30:55.151Z,0
2018-12-02T05:32:05.329Z,0
2018-12-02T05:33:15.464Z,0
2018-12-02T05:34:25.331Z,0
2018-12-02T05:35:35.475Z,0
2018-12-02T05:36:45.609Z,0
2018-12-02T05:37:56.021Z,0
2018-12-02T05:39:06.148Z,0
2018-12-02T05:40:16.029Z,0
2018-12-02T05:41:26.158Z,0
2018-12-02T05:42:36.289Z,0
2018-12-02T05:43:46.418Z,0
2018-12-02T05:44:56.541Z,0
2018-12-02T05:46:06.685Z,0
2018-12-02T05:47:16.512Z,0
2018-12-02T05:48:27.118Z,0
2018-12-02T05:49:37.253Z,0
2018-12-02T05:50:47.401Z,0
2018-12-02T05:51:57.249Z,0
2018-12-02T05:53:07.449Z,0
2018-12-02T05:54:17.273Z,0
2018-12-02T05:55:27.403Z,0
2018-12-02T05:56:37.519Z,0
2018-12-02T05:57:47.401Z,0
2018-12-02T05:58:57.504Z,0
2018-12-02T06:00:10.550Z,0
2018-12-02T06:01:20.637Z,0
2018-12-02T06:02:30.468Z,0
2018-12-02T06:03:40.589Z,0
2018-12-02T06:04:50.749Z,0
2018-12-02T06:06:00.847Z,0
2018-12-02T06:07:13.046Z,0
2018-12-02T06:08:23.172Z,0
2018-12-02T06:09:33.327Z,0
2018-12-02T06:10:43.444Z,0
2018-12-02T06:11:53.641Z,0
2018-12-02T06:13:03.770Z,0
2018-12-02T06:14:13.903Z,0
2018-12-02T06:15:23.770Z,0
2018-12-02T06:16:34.172Z,0
2018-12-02T06:17:44.328Z,0
2018-12-02T06:18:55.146Z,0
2018-12-02T06:20:09.408Z,0
2018-12-02T06:21:19.537Z,0
2018-12-02T06:22:29.376Z,0
2018-12-02T06:23:39.517Z,0
2018-12-02T06:24:49.624Z,0
2018-12-02T06:25:59.511Z,0
2018-12-02T06:27:09.267Z,0
2018-12-02T06:28:19.395Z,0
2018-12-02T06:29:29.509Z,0
2018-12-02T06:30:39.643Z,0
2018-12-02T06:31:49.766Z,0
2018-12-02T06:32:59.883Z,0
2018-12-02T06:34:09.748Z,0
2018-12-02T06:35:19.891Z,0
2018-12-02T06:36:30.019Z,0
2018-12-02T06:37:40.180Z,5
2018-12-02T06:38:50.053Z,5
2018-12-02T06:40:00.195Z,5
2018-12-02T06:41:11.772Z,5
2018-12-02T06:42:21.693Z,5
2018-12-02T06:43:31.805Z,5
2018-12-02T06:44:41.954Z,5
2018-12-02T06:45:52.087Z,5
2018-12-02T06:47:02.206Z,5
2018-12-02T06:48:12.392Z,5
2018-12-02T06:49:22.021Z,5
2018-12-02T06:50:32.155Z,10
2018-12-02T06:51:42.303Z,10
2018-12-02T06:52:52.597Z,10
2018-12-02T06:54:02.763Z,10
2018-12-02T06:55:12.911Z,10
2018-12-02T06:56:22.732Z,10
2018-12-02T06:57:32.644Z,10
2018-12-02T06:58:42.547Z,10
2018-12-02T06:59:52.491Z,10
2018-12-02T07:01:02.722Z,10
2018-12-02T07:02:13.069Z,15
2018-12-02T07:03:23.194Z,15
2018-12-02T07:04:33.068Z,15
2018-12-02T07:05:43.144Z,15
2018-12-02T07:06:53.021Z,15
2018-12-02T07:08:05.300Z,15
2018-12-02T07:09:15.476Z,15
2018-12-02T07:10:25.298Z,15
2018-12-02T07:11:35.497Z,15
2018-12-02T07:12:45.614Z,20
2018-12-02T07:13:55.739Z,20
2018-12-02T07:15:05.599Z,20
2018-12-02T07:16:15.726Z,20
2018-12-02T07:17:25.913Z,20
2018-12-02T07:18:36.054Z,20
2018-12-02T07:19:46.179Z,25
2018-12-02T07:20:55.805Z,25
2018-12-02T07:22:05.941Z,25
2018-12-02T07:23:16.069Z,25
2018-12-02T07:24:26.289Z,25
2018-12-02T07:25:36.426Z,30
2018-12-02T07:26:46.577Z,30
2018-12-02T07:27:56.690Z,30
2018-12-02T07:29:06.825Z,35
2018-12-02T07:30:16.974Z,35
2018-12-02T07:31:27.163Z,35
2018-12-02T07:32:38.542Z,35
2018-12-02T07:33:48.732Z,40
2018-12-02T07:34:58.857Z,45
2018-12-02T07:36:08.565Z,50
2018-12-02T07:37:18.686Z,50
2018-12-02T07:38:28.572Z,55
2018-12-02T07:39:39.207Z,55
2018-12-02T07:40:49.413Z,60
2018-12-02T07:41:59.285Z,60
2018-12-02T07:43:09.207Z,60
2018-12-02T07:44:19.351Z,60
2018-12-02T07:45:29.458Z,65
2018-12-02T07:46:39.594Z,65
2018-12-02T07:47:49.986Z,65
2018-12-02T07:49:00.117Z,65
2018-12-02T07:50:10.245Z,70
2018-12-02T07:51:20.373Z,70
2018-12-02T07:52:30.774Z,70
2018-12-02T07:53:40.943Z,75
2018-12-02T07:54:51.079Z,75
2018-12-02T07:56:01.289Z,65
2018-12-02T07:57:12.025Z,60
2018-12-02T07:58:22.264Z,55
2018-12-02T07:59:32.393Z,55
2018-12-02T08:00:42.268Z,55
2018-12-02T08:01:52.435Z,50
2018-12-02T08:03:02.343Z,50
2018-12-02T08:04:12.259Z,50
2018-12-02T08:05:22.398Z,50
2018-12-02T08:06:32.531Z,50
2018-12-02T08:07:42.657Z,55
2018-12-02T08:08:52.824Z,55
2018-12-02T08:10:03.009Z,55
2018-12-02T08:11:13.145Z,55
2018-12-02T08:12:23.262Z,55
2018-12-02T08:13:33.131Z,60
2018-12-02T08:14:43.310Z,60
2018-12-02T08:15:53.620Z,60
2018-12-02T08:17:04.093Z,65
2018-12-02T08:18:14.510Z,65
2018-12-02T08:19:24.636Z,65
2018-12-02T08:20:34.833Z,65
2018-12-02T08:21:44.948Z,65
2018-12-02T08:23:00.655Z,65
2018-12-02T08:24:11.929Z,70
2018-12-02T08:25:22.097Z,70
2018-12-02T08:26:32.264Z,70
2018-12-02T08:27:42.457Z,70
2018-12-02T08:28:53.091Z,70
2018-12-02T08:30:05.716Z,70
2018-12-02T08:31:16.090Z,70
2018-12-02T08:32:26.255Z,65
2018-12-02T08:33:36.749Z,70
2018-12-02T08:34:46.627Z,70
2018-12-02T08:35:56.787Z,75
2018-12-02T08:37:06.945Z,80
2018-12-02T08:38:17.280Z,85
2018-12-02T08:39:27.418Z,85
2018-12-02T08:40:37.547Z,85
2018-12-02T08:41:47.769Z,85
2018-12-02T08:42:57.905Z,85
2018-12-02T08:44:08.079Z,85
2018-12-02T08:45:18.222Z,85
2018-12-02T08:46:28.352Z,85
2018-12-02T08:47:38.494Z,80
2018-12-02T08:48:48.624Z,75
2018-12-02T08:49:58.758Z,65
2018-12-02T08:51:08.646Z,65
2018-12-02T08:52:18.778Z,65
2018-12-02T08:53:28.903Z,65
2018-12-02T08:54:39.271Z,65
2018-12-02T08:55:49.454Z,65
2018-12-02T08:56:59.646Z,65
2018-12-02T08:58:12.831Z,65
2018-12-02T08:59:22.707Z,65
2018-12-02T09:00:32.847Z,65
2018-12-02T09:01:43.057Z,60
2018-12-02T09:10:17.711Z,45
2018-12-02T09:11:27.698Z,45
2018-12-02T09:12:37.836Z,50
2018-12-02T09:13:47.972Z,50
2018-12-02T09:14:58.111Z,50
2018-12-02T09:16:07.984Z,55
2018-12-02T09:17:18.234Z,55
2018-12-02T09:18:28.373Z,55
2018-12-02T09:19:38.508Z,60
2018-12-02T09:20:48.664Z,60
2018-12-02T09:21:59.065Z,60
2018-12-02T09:23:09.202Z,60
2018-12-02T09:24:19.083Z,60
2018-12-02T09:25:29.217Z,70
2018-12-02T09:26:39.367Z,70
2018-12-02T09:27:49.560Z,75
2018-12-02T09:28:59.712Z,80
2018-12-02T09:30:09.995Z,85
2018-12-02T09:31:20.465Z,90
2018-12-02T09:32:30.650Z,100
2018-12-02T09:33:40.814Z,110
2018-12-02T09:34:50.988Z,115
2018-12-02T09:36:01.658Z,120
2018-12-02T09:37:12.791Z,120
2018-12-02T09:38:22.978Z,115
2018-12-02T09:39:32.864Z,110
2018-12-02T09:40:42.931Z,100
2018-12-02T09:41:53.063Z,90
2018-12-02T09:43:03.202Z,85
2018-12-02T09:44:13.321Z,75
2018-12-02T09:45:23.448Z,70
2018-12-02T09:46:33.588Z,80
2018-12-02T09:47:43.781Z,85
2018-12-02T09:48:53.912Z,75
2018-12-02T09:50:04.830Z,70
2018-12-02T09:51:14.970Z,75
2018-12-02T09:52:25.116Z,80
2018-12-02T09:53:35.271Z,80
2018-12-02T09:54:45.400Z,80
2018-12-02T09:55:55.548Z,80
2018-12-02T09:57:05.689Z,80
2018-12-02T09:58:15.825Z,80
2018-12-02T09:59:25.939Z,80
2018-12-02T10:00:41.043Z,80
2018-12-02T10:01:50.928Z,75
2018-12-02T10:03:01.062Z,70
2018-12-02T10:04:11.222Z,70
2018-12-02T10:05:21.393Z,90
2018-12-02T10:06:31.576Z,90
2018-12-02T10:07:41.180Z,105
2018-12-02T10:08:50.766Z,110
2018-12-02T10:10:01.851Z,120
2018-12-02T10:11:11.971Z,125
2018-12-02T10:12:21.846Z,110
2018-12-02T10:13:32.028Z,115
2018-12-02T10:14:42.165Z,115
2018-12-02T10:15:52.299Z,125
2018-12-02T10:17:02.443Z,120
2018-12-02T10:18:12.258Z,115
2018-12-02T10:19:22.138Z,105
2018-12-02T10:20:32.265Z,95
2018-12-02T10:21:42.522Z,95
2018-12-02T10:22:52.660Z,85
2018-12-02T10:24:02.811Z,80
2018-12-02T10:25:12.975Z,85
2018-12-02T10:26:23.127Z,80
2018-12-02T10:27:33.318Z,75
2018-12-02T10:28:43.460Z,80
2018-12-02T10:29:53.582Z,75
2018-12-02T10:31:03.490Z,75
2018-12-02T10:32:17.177Z,95
2018-12-02T10:33:27.416Z,85
2018-12-02T10:34:37.565Z,75
2018-12-02T10:35:47.696Z,70
2018-12-02T10:36:57.831Z,75
2018-12-02T10:38:07.965Z,80
2018-12-02T10:39:18.158Z,80
2018-12-02T10:40:28.303Z,75
2018-12-02T10:41:38.155Z,80
2018-12-02T10:42:48.036Z,80
2018-12-02T10:43:58.159Z,75
2018-12-02T10:45:08.320Z,65
2018-12-02T10:46:20.685Z,75
2018-12-02T10:47:30.840Z,75
2018-12-02T10:48:40.993Z,85
2018-12-02T10:49:51.130Z,85
2018-12-02T10:51:03.415Z,75
2018-12-02T10:52:13.290Z,60
2018-12-02T10:53:23.710Z,60
2018-12-02T10:54:34.178Z,65
2018-12-02T10:55:44.346Z,55
2018-12-02T10:56:54.513Z,60
2018-12-02T10:58:04.659Z,60
2018-12-02T10:59:14.793Z,55
2018-12-02T11:00:24.919Z,55
2018-12-02T11:01:34.841Z,55
2018-12-02T11:02:45.028Z,65
2018-12-02T11:03:55.161Z,65
2018-12-02T11:05:05.323Z,60
2018-12-02T11:06:15.454Z,60
2018-12-02T11:07:25.574Z,60
2018-12-02T11:08:35.728Z,60
2018-12-02T11:09:45.919Z,65
2018-12-02T11:10:56.054Z,60
2018-12-02T11:12:06.231Z,75
2018-12-02T11:13:16.393Z,85
2018-12-02T11:14:26.577Z,70
2018-12-02T11:15:36.775Z,70
2018-12-02T11:16:46.932Z,75
2018-12-02T11:17:57.070Z,85
2018-12-02T11:19:06.978Z,80
2018-12-02T11:20:17.133Z,70
2018-12-02T11:21:27.290Z,65
2018-12-02T11:22:37.670Z,65
2018-12-02T11:23:47.818Z,65
2018-12-02T11:24:58.197Z,85
2018-12-02T11:26:08.327Z,85
2018-12-02T11:27:18.499Z,85
2018-12-02T11:28:28.660Z,65
2018-12-02T11:29:38.819Z,55
2018-12-02T11:30:48.720Z,65
2018-12-02T11:31:58.941Z,70
2018-12-02T11:33:09.749Z,65
2018-12-02T11:34:19.896Z,65
2018-12-02T11:35:30.222Z,65
2018-12-02T11:36:40.370Z,55
2018-12-02T11:37:50.752Z,55
2018-12-02T11:39:00.894Z,55
2018-12-02T11:40:13.028Z,60
2018-12-02T11:41:23.292Z,60
2018-12-02T11:42:33.463Z,65
2018-12-02T11:43:43.635Z,55
2018-12-02T11:44:53.791Z,65
2018-12-02T11:46:03.930Z,80
2018-12-02T11:47:14.162Z,85
2018-12-02T11:48:24.848Z,75
2018-12-02T11:49:34.988Z,75
2018-12-02T11:50:45.183Z,80
2018-12-02T11:51:55.349Z,75
2018-12-02T11:53:05.257Z,65
2018-12-02T11:54:15.182Z,65
2018-12-02T11:55:25.259Z,70
2018-12-02T11:56:35.521Z,75
2018-12-02T11:57:45.783Z,70
2018-12-02T11:58:55.974Z,70
2018-12-02T12:00:06.682Z,70
2018-12-02T12:01:17.095Z,70
2018-12-02T12:02:27.240Z,65
2018-12-02T12:03:37.395Z,65
2018-12-02T12:04:47.574Z,70
2018-12-02T12:05:57.791Z,85
2018-12-02T12:07:10.627Z,75
2018-12-02T12:08:20.528Z,70
2018-12-02T12:09:30.682Z,60
2018-12-02T12:10:40.829Z,60
2018-12-02T12:11:50.975Z,65
2018-12-02T12:13:01.136Z,55
2018-12-02T12:14:12.197Z,55
2018-12-02T12:15:22.123Z,55
2018-12-02T12:16:32.306Z,50
2018-12-02T12:17:42.548Z,50
2018-12-02T12:18:52.939Z,50
2018-12-02T12:20:05.519Z,45
2018-12-02T12:21:15.687Z,45
2018-12-02T12:22:25.896Z,45
2018-12-02T12:23:36.156Z,40
2018-12-02T12:24:46.296Z,45
2018-12-02T12:25:55.932Z,45
2018-12-02T12:27:07.572Z,45
2018-12-02T12:28:17.416Z,45
2018-12-02T12:29:27.581Z,45
2018-12-02T12:30:37.841Z,45
2018-12-02T12:31:47.719Z,40
2018-12-02T12:32:57.869Z,40
2018-12-02T12:34:08.562Z,40
2018-12-02T12:35:18.701Z,40
2018-12-02T12:36:28.860Z,45
2018-12-02T12:37:38.699Z,45
2018-12-02T12:38:48.911Z,45
2018-12-02T12:39:59.124Z,45
2018-12-02T12:41:09.068Z,50
2018-12-02T12:42:19.230Z,50
2018-12-02T12:43:29.471Z,45
2018-12-02T12:44:39.898Z,45
2018-12-02T12:45:50.082Z,45
2018-12-02T12:47:00.732Z,45
2018-12-02T12:48:10.870Z,45
2018-12-02T12:49:20.730Z,45
2018-12-02T12:50:30.869Z,40
2018-12-02T12:51:44.759Z,40
2018-12-02T12:52:54.926Z,40
2018-12-02T12:54:05.072Z,40
2018-12-02T12:55:14.982Z,40
2018-12-02T12:56:25.151Z,40
2018-12-02T12:57:35.621Z,40
2018-12-02T12:58:45.774Z,35
2018-12-02T12:59:55.917Z,35
2018-12-02T13:01:06.086Z,40
2018-12-02T13:02:15.972Z,40
2018-12-02T13:03:25.833Z,40
2018-12-02T13:04:35.979Z,40
2018-12-02T13:05:46.159Z,45
2018-12-02T13:06:56.316Z,45
2018-12-02T13:08:07.427Z,45
2018-12-02T13:09:17.658Z,45
2018-12-02T13:10:27.857Z,45
2018-12-02T13:11:38.011Z,45
2018-12-02T13:12:48.157Z,45
2018-12-02T13:13:58.351Z,45
2018-12-02T13:15:08.478Z,45
2018-12-02T13:16:18.636Z,40
2018-12-02T13:17:28.777Z,45
2018-12-02T13:18:38.968Z,40
2018-12-02T13:19:49.129Z,40
2018-12-02T13:20:59.311Z,45
2018-12-02T13:22:09.752Z,45
2018-12-02T13:23:20.137Z,45
2018-12-02T13:24:30.303Z,45
2018-12-02T13:25:40.532Z,45
2018-12-02T13:26:50.643Z,45
2018-12-02T13:28:01.398Z,40
2018-12-02T13:29:13.092Z,45
2018-12-02T13:30:23.319Z,45
2018-12-02T13:31:33.511Z,45
2018-12-02T13:32:43.704Z,45
2018-12-02T13:33:53.849Z,40
2018-12-02T13:35:03.984Z,40
2018-12-02T13:36:14.145Z,35
2018-12-02T13:37:24.367Z,30
2018-12-02T13:38:34.243Z,30
2018-12-02T13:39:44.370Z,30
2018-12-02T13:40:54.648Z,30
2018-12-02T13:42:04.590Z,30
2018-12-02T13:43:14.831Z,30
2018-12-02T13:44:24.965Z,30
2018-12-02T13:45:35.120Z,25
2018-12-02T13:46:45.013Z,25
2018-12-02T13:47:55.135Z,25
2018-12-02T13:49:05.285Z,20
2018-12-02T13:50:15.471Z,20
2018-12-02T13:51:26.114Z,20
2018-12-02T13:52:37.906Z,20
2018-12-02T13:53:49.303Z,20
2018-12-02T13:55:02.023Z,20
2018-12-02T13:56:13.039Z,15
2018-12-02T13:57:23.229Z,15
2018-12-02T13:58:33.630Z,15
2018-12-02T13:59:43.775Z,15
2018-12-02T14:00:54.208Z,15
2018-12-02T14:02:04.364Z,15
2018-12-02T14:03:14.614Z,15
2018-12-02T14:04:24.799Z,15
2018-12-02T14:05:35.222Z,15
2018-12-02T14:06:45.065Z,15
2018-12-02T14:07:55.228Z,15
2018-12-02T14:09:06.224Z,15
2018-12-02T14:10:16.601Z,20
2018-12-02T14:11:26.765Z,20
2018-12-02T14:12:37.157Z,20
2018-12-02T14:13:47.364Z,20
2018-12-02T14:14:57.964Z,20
2018-12-02T14:16:08.369Z,20
2018-12-02T14:17:18.627Z,20
2018-12-02T14:18:28.843Z,20
2018-12-02T14:19:41.444Z,15
2018-12-02T14:20:51.595Z,15
2018-12-02T14:22:01.766Z,15
2018-12-02T14:23:11.653Z,10
2018-12-02T14:24:21.802Z,10
2018-12-02T14:25:31.681Z,10
2018-12-02T14:26:41.823Z,10
2018-12-02T14:27:51.789Z,10
2018-12-02T14:29:01.943Z,10
2018-12-02T14:30:12.114Z,5
2018-12-02T14:31:22.310Z,5
2018-12-02T14:32:32.198Z,5
2018-12-02T14:33:45.487Z,5
2018-12-02T14:34:55.389Z,5
2018-12-02T14:36:05.553Z,5
2018-12-02T14:37:15.739Z,5
2018-12-02T14:38:25.883Z,5
2018-12-02T14:39:36.019Z,5
2018-12-02T14:40:46.164Z,5
2018-12-02T14:41:56.043Z,5
2018-12-02T14:43:05.936Z,5
2018-12-02T14:44:16.115Z,0
2018-12-02T14:45:26.239Z,0
2018-12-02T14:46:36.154Z,0
2018-12-02T14:47:46.326Z,0
2018-12-02T14:48:56.521Z,0
2018-12-02T14:50:08.471Z,0
2018-12-02T14:51:18.613Z,0
2018-12-02T14:52:28.761Z,0
2018-12-02T14:53:38.881Z,0
2018-12-02T14:54:49.027Z,0
2018-12-02T14:55:59.175Z,0
2018-12-02T14:57:09.331Z,0
2018-12-02T14:58:19.474Z,0
2018-12-02T14:59:29.604Z,0
2018-12-02T15:00:39.742Z,0
2018-12-02T15:01:50.164Z,0
2018-12-02T15:03:00.313Z,0
2018-12-02T15:04:10.444Z,0
2018-12-02T15:05:20.504Z,0
2018-12-02T15:06:30.509Z,0
2018-12-02T15:07:40.691Z,0
2018-12-02T15:08:51.565Z,0
2018-12-02T15:10:01.770Z,0
2018-12-02T15:11:11.922Z,0
2018-12-02T15:12:21.818Z,0
2018-12-02T15:13:32.067Z,0
2018-12-02T15:14:41.743Z,0
2018-12-02T15:15:51.914Z,0
2018-12-02T15:17:02.321Z,0
2018-12-02T15:18:12.718Z,0
2018-12-02T15:19:23.090Z,0
2018-12-02T15:20:33.329Z,0
2018-12-02T15:21:43.917Z,0
2018-12-02T15:22:54.073Z,0
2018-12-02T15:24:04.274Z,0
2018-12-02T15:25:14.513Z,0
2018-12-02T15:26:24.734Z,0
2018-12-02T15:27:34.871Z,0
2018-12-02T15:28:45.041Z,0
2018-12-02T15:29:55.311Z,0
2018-12-02T15:31:07.808Z,0
2018-12-02T15:32:18.054Z,0
2018-12-02T15:33:28.207Z,0
2018-12-02T15:34:38.366Z,0
2018-12-02T15:35:48.609Z,0
2018-12-02T15:36:58.796Z,0
2018-12-02T15:38:09.258Z,0
2018-12-02T15:39:19.468Z,0
2018-12-02T15:40:29.714Z,0
2018-12-02T15:41:39.949Z,0
2018-12-02T15:42:50.396Z,0
2018-12-02T15:44:00.558Z,0
2018-12-02T15:45:10.711Z,0
2018-12-02T15:46:20.910Z,0
2018-12-02T15:47:31.113Z,0
2018-12-02T15:48:41.274Z,0
2018-12-02T15:49:51.430Z,0
2018-12-02T15:51:01.602Z,0
2018-12-02T15:52:11.771Z,0
2018-12-02T15:53:21.998Z,0
2018-12-02T15:54:32.402Z,0
2018-12-02T15:55:42.772Z,0
2018-12-02T15:56:53.193Z,0
2018-12-02T15:58:03.136Z,0
2018-12-02T15:59:13.363Z,0
2018-12-02T16:00:23.606Z,0
2018-12-02T16:01:34.468Z,0
2018-12-02T16:02:44.364Z,0
2018-12-02T16:03:54.545Z,0
2018-12-02T16:05:04.739Z,0
2018-12-02T16:06:14.951Z,0
2018-12-02T16:07:25.272Z,0
2018-12-02T16:08:35.653Z,0
2018-12-02T16:09:46.318Z,0
2018-12-02T16:10:56.272Z,0
2018-12-02T16:12:06.503Z,0
2018-12-02T16:13:16.767Z,0
2018-12-02T16:14:26.947Z,0
2018-12-02T16:15:37.158Z,0
2018-12-02T16:16:47.394Z,0
2018-12-02T16:17:57.624Z,0
2018-12-02T16:19:07.892Z,0
2018-12-02T16:20:18.089Z,0
2018-12-02T16:21:28.299Z,0
2018-12-02T16:22:38.528Z,0
2018-12-02T16:23:48.753Z,0
2018-12-02T16:24:58.991Z,0
2018-12-02T16:26:08.896Z,0
2018-12-02T16:27:19.071Z,0
2018-12-02T16:28:29.267Z,0
2018-12-02T16:29:39.745Z,0
2018-12-02T16:30:49.947Z,0
2018-12-02T16:32:00.107Z,0
2018-12-02T16:33:10.939Z,0
2018-12-02T16:34:21.609Z,0
2018-12-02T16:35:31.840Z,0
2018-12-02T16:36:42.088Z,0
2018-12-02T16:37:52.243Z,0
2018-12-02T16:39:03.303Z,0
2018-12-02T16:40:13.445Z,0
2018-12-02T16:41:23.617Z,0
2018-12-02T16:42:33.512Z,0
2018-12-02T16:43:44.101Z,0
2018-12-02T16:44:54.503Z,0
2018-12-02T16:46:07.116Z,0
2018-12-02T16:47:17.259Z,0
2018-12-02T16:48:27.558Z,0
2018-12-02T16:49:37.719Z,0
2018-12-02T16:50:47.902Z,0
2018-12-02T16:51:58.118Z,0
2018-12-02T16:53:08.353Z,0
2018-12-02T16:54:18.580Z,0
2018-12-02T16:55:28.466Z,0
2018-12-02T16:56:38.627Z,0
2018-12-02T16:57:48.806Z,0
2018-12-02T16:58:58.970Z,0
2018-12-02T17:00:09.158Z,0
2018-12-02T17:01:19.337Z,0
2018-12-02T17:02:29.505Z,0
2018-12-02T17:03:39.679Z,0
2018-12-02T17:04:49.817Z,0
2018-12-02T17:05:59.972Z,0
2018-12-02T17:07:11.015Z,0
2018-12-02T17:08:21.395Z,0
2018-12-02T17:09:31.560Z,0
2018-12-02T17:10:41.783Z,0
2018-12-02T17:11:52.229Z,0
2018-12-02T17:13:02.412Z,0
2018-12-02T17:14:12.805Z,0
2018-12-02T17:15:22.955Z,0
2018-12-02T17:16:33.145Z,0
2018-12-02T17:17:43.385Z,0
2018-12-02T17:18:53.585Z,0
2018-12-02T17:20:03.772Z,0
2018-12-02T17:21:13.975Z,0
2018-12-02T17:22:23.887Z,0
2018-12-02T17:23:34.088Z,0
2018-12-02T17:24:44.259Z,0
2018-12-02T17:25:54.410Z,0
2018-12-02T17:27:04.590Z,0
2018-12-02T17:28:15.050Z,0
2018-12-02T17:29:25.272Z,0
2018-12-02T17:30:35.523Z,0
2018-12-02T17:31:45.710Z,0
2018-12-02T17:32:55.937Z,0
2018-12-02T17:34:07.345Z,0
2018-12-02T17:35:17.544Z,0
2018-12-02T17:36:27.710Z,0
2018-12-02T17:37:37.879Z,0
2018-12-02T17:38:48.101Z,0
2018-12-02T17:39:58.303Z,0